sensor_id;sensor_type;location;lat;lon;timestamp;P1;durP1;ratioP1;P2;durP2;ratioP2
15198;SDS011;7700;48.654;9.070;2024-03-29T00:01:49;1.53;;;1.17;;
15198;SDS011;7700;48.654;9.070;2024-03-29T00:04:14;1.20;;;1.10;;
15198;SDS011;7700;48.654;9.070;2024-03-29T00:06:40;1.43;;;1.00;;
15198;SDS011;7700;48.654;9.070;2024-03-29T00:09:05;1.47;;;1.10;;
15198;SDS011;7700;48.654;9.070;2024-03-29T00:11:31;1.10;;;1.00;;
15198;SDS011;7700;48.654;9.070;2024-03-29T00:13:57;2.33;;;1.33;;
15198;SDS011;7700;48.654;9.070;2024-03-29T00:16:22;1.53;;;1.07;;
15198;SDS011;7700;48.654;9.070;2024-03-29T00:18:50;1.63;;;0.90;;
15198;SDS011;7700;48.654;9.070;2024-03-29T00:21:16;1.13;;;1.03;;
15198;SDS011;7700;48.654;9.070;2024-03-29T00:23:42;1.20;;;1.10;;
15198;SDS011;7700;48.654;9.070;2024-03-29T00:26:09;1.90;;;1.03;;
15198;SDS011;7700;48.654;9.070;2024-03-29T00:28:35;1.47;;;1.20;;
15198;SDS011;7700;48.654;9.070;2024-03-29T00:31:00;1.00;;;0.70;;
15198;SDS011;7700;48.654;9.070;2024-03-29T00:33:26;1.77;;;1.00;;
15198;SDS011;7700;48.654;9.070;2024-03-29T00:35:51;1.83;;;0.90;;
15198;SDS011;7700;48.654;9.070;2024-03-29T00:38:17;0.70;;;0.70;;
15198;SDS011;7700;48.654;9.070;2024-03-29T00:40:43;1.90;;;0.90;;
15198;SDS011;7700;48.654;9.070;2024-03-29T00:43:08;1.20;;;1.00;;
15198;SDS011;7700;48.654;9.070;2024-03-29T00:45:35;1.40;;;0.90;;
15198;SDS011;7700;48.654;9.070;2024-03-29T00:48:00;0.90;;;0.80;;
15198;SDS011;7700;48.654;9.070;2024-03-29T00:50:26;1.53;;;1.07;;
15198;SDS011;7700;48.654;9.070;2024-03-29T00:52:51;1.23;;;1.10;;
15198;SDS011;7700;48.654;9.070;2024-03-29T00:55:17;1.40;;;0.80;;
15198;SDS011;7700;48.654;9.070;2024-03-29T00:57:42;1.93;;;1.00;;
15198;SDS011;7700;48.654;9.070;2024-03-29T01:00:09;0.90;;;0.90;;
15198;SDS011;7700;48.654;9.070;2024-03-29T01:02:35;1.17;;;1.07;;
15198;SDS011;7700;48.654;9.070;2024-03-29T01:05:01;2.03;;;1.00;;
15198;SDS011;7700;48.654;9.070;2024-03-29T01:07:27;1.67;;;1.40;;
15198;SDS011;7700;48.654;9.070;2024-03-29T01:09:53;4.30;;;2.33;;
15198;SDS011;7700;48.654;9.070;2024-03-29T01:12:18;4.10;;;2.50;;
15198;SDS011;7700;48.654;9.070;2024-03-29T01:14:44;2.13;;;1.93;;
15198;SDS011;7700;48.654;9.070;2024-03-29T01:17:10;2.97;;;1.23;;
15198;SDS011;7700;48.654;9.070;2024-03-29T01:19:36;1.87;;;1.07;;
15198;SDS011;7700;48.654;9.070;2024-03-29T01:22:02;1.60;;;1.13;;
15198;SDS011;7700;48.654;9.070;2024-03-29T01:24:29;1.10;;;0.97;;
15198;SDS011;7700;48.654;9.070;2024-03-29T01:26:54;1.40;;;1.07;;
15198;SDS011;7700;48.654;9.070;2024-03-29T01:29:20;3.97;;;1.50;;
15198;SDS011;7700;48.654;9.070;2024-03-29T01:31:45;2.10;;;1.90;;
15198;SDS011;7700;48.654;9.070;2024-03-29T01:34:11;1.70;;;1.50;;
15198;SDS011;7700;48.654;9.070;2024-03-29T01:36:41;2.40;;;2.10;;
15198;SDS011;7700;48.654;9.070;2024-03-29T01:39:15;3.23;;;2.20;;
15198;SDS011;7700;48.654;9.070;2024-03-29T01:41:43;2.20;;;1.53;;
15198;SDS011;7700;48.654;9.070;2024-03-29T01:44:09;3.03;;;1.60;;
15198;SDS011;7700;48.654;9.070;2024-03-29T01:46:35;1.83;;;1.63;;
15198;SDS011;7700;48.654;9.070;2024-03-29T01:49:02;2.03;;;1.40;;
15198;SDS011;7700;48.654;9.070;2024-03-29T01:51:28;1.60;;;1.50;;
15198;SDS011;7700;48.654;9.070;2024-03-29T01:53:54;1.43;;;1.33;;
15198;SDS011;7700;48.654;9.070;2024-03-29T01:56:20;1.50;;;1.40;;
15198;SDS011;7700;48.654;9.070;2024-03-29T01:58:49;1.60;;;1.40;;
15198;SDS011;7700;48.654;9.070;2024-03-29T02:01:18;1.83;;;1.20;;
15198;SDS011;7700;48.654;9.070;2024-03-29T02:03:44;2.90;;;1.27;;
15198;SDS011;7700;48.654;9.070;2024-03-29T02:06:11;2.40;;;1.50;;
15198;SDS011;7700;48.654;9.070;2024-03-29T02:08:38;1.70;;;1.30;;
15198;SDS011;7700;48.654;9.070;2024-03-29T02:11:04;2.07;;;1.27;;
15198;SDS011;7700;48.654;9.070;2024-03-29T02:13:29;1.23;;;1.13;;
15198;SDS011;7700;48.654;9.070;2024-03-29T02:15:56;1.10;;;1.00;;
15198;SDS011;7700;48.654;9.070;2024-03-29T02:18:22;1.53;;;1.20;;
15198;SDS011;7700;48.654;9.070;2024-03-29T02:20:47;1.70;;;1.30;;
15198;SDS011;7700;48.654;9.070;2024-03-29T02:23:18;1.30;;;0.90;;
15198;SDS011;7700;48.654;9.070;2024-03-29T02:25:45;2.10;;;1.30;;
15198;SDS011;7700;48.654;9.070;2024-03-29T02:28:11;1.27;;;1.10;;
15198;SDS011;7700;48.654;9.070;2024-03-29T02:30:37;1.63;;;1.03;;
15198;SDS011;7700;48.654;9.070;2024-03-29T02:33:03;1.73;;;0.90;;
15198;SDS011;7700;48.654;9.070;2024-03-29T02:35:29;1.37;;;1.00;;
15198;SDS011;7700;48.654;9.070;2024-03-29T02:37:55;1.40;;;1.00;;
15198;SDS011;7700;48.654;9.070;2024-03-29T02:40:21;0.80;;;0.80;;
15198;SDS011;7700;48.654;9.070;2024-03-29T02:42:47;1.23;;;1.13;;
15198;SDS011;7700;48.654;9.070;2024-03-29T02:45:13;1.30;;;0.97;;
15198;SDS011;7700;48.654;9.070;2024-03-29T02:47:39;1.77;;;0.87;;
15198;SDS011;7700;48.654;9.070;2024-03-29T02:50:05;0.77;;;0.77;;
15198;SDS011;7700;48.654;9.070;2024-03-29T02:52:31;1.07;;;0.97;;
15198;SDS011;7700;48.654;9.070;2024-03-29T02:54:57;1.13;;;1.00;;
15198;SDS011;7700;48.654;9.070;2024-03-29T02:57:22;2.80;;;1.57;;
15198;SDS011;7700;48.654;9.070;2024-03-29T02:59:48;2.83;;;1.53;;
15198;SDS011;7700;48.654;9.070;2024-03-29T03:02:13;2.33;;;1.83;;
15198;SDS011;7700;48.654;9.070;2024-03-29T03:04:39;2.33;;;1.43;;
15198;SDS011;7700;48.654;9.070;2024-03-29T03:07:04;1.93;;;1.57;;
15198;SDS011;7700;48.654;9.070;2024-03-29T03:09:49;1.80;;;1.43;;
15198;SDS011;7700;48.654;9.070;2024-03-29T03:12:33;3.23;;;1.27;;
15198;SDS011;7700;48.654;9.070;2024-03-29T03:14:59;1.47;;;1.33;;
15198;SDS011;7700;48.654;9.070;2024-03-29T03:17:25;1.33;;;1.23;;
15198;SDS011;7700;48.654;9.070;2024-03-29T03:19:52;1.60;;;1.00;;
15198;SDS011;7700;48.654;9.070;2024-03-29T03:22:17;1.53;;;1.30;;
15198;SDS011;7700;48.654;9.070;2024-03-29T03:24:43;1.83;;;1.63;;
15198;SDS011;7700;48.654;9.070;2024-03-29T03:27:08;1.90;;;1.70;;
15198;SDS011;7700;48.654;9.070;2024-03-29T03:29:34;2.73;;;1.60;;
15198;SDS011;7700;48.654;9.070;2024-03-29T03:31:59;1.77;;;1.17;;
15198;SDS011;7700;48.654;9.070;2024-03-29T03:34:25;2.70;;;0.90;;
15198;SDS011;7700;48.654;9.070;2024-03-29T03:36:50;1.20;;;1.03;;
15198;SDS011;7700;48.654;9.070;2024-03-29T03:39:16;1.20;;;0.90;;
15198;SDS011;7700;48.654;9.070;2024-03-29T03:41:41;1.00;;;0.87;;
15198;SDS011;7700;48.654;9.070;2024-03-29T03:44:07;1.10;;;0.80;;
15198;SDS011;7700;48.654;9.070;2024-03-29T03:46:32;1.67;;;0.70;;
15198;SDS011;7700;48.654;9.070;2024-03-29T03:48:58;2.47;;;0.83;;
15198;SDS011;7700;48.654;9.070;2024-03-29T03:51:23;0.90;;;0.90;;
15198;SDS011;7700;48.654;9.070;2024-03-29T03:53:49;1.27;;;0.87;;
15198;SDS011;7700;48.654;9.070;2024-03-29T03:56:15;1.40;;;0.87;;
15198;SDS011;7700;48.654;9.070;2024-03-29T03:58:41;1.00;;;0.90;;
15198;SDS011;7700;48.654;9.070;2024-03-29T04:01:08;0.80;;;0.80;;
15198;SDS011;7700;48.654;9.070;2024-03-29T04:03:34;0.80;;;0.80;;
15198;SDS011;7700;48.654;9.070;2024-03-29T04:06:02;1.27;;;1.17;;
15198;SDS011;7700;48.654;9.070;2024-03-29T04:08:28;1.50;;;0.90;;
15198;SDS011;7700;48.654;9.070;2024-03-29T04:10:54;1.23;;;0.80;;
15198;SDS011;7700;48.654;9.070;2024-03-29T04:13:19;1.27;;;1.13;;
15198;SDS011;7700;48.654;9.070;2024-03-29T04:15:45;1.23;;;0.97;;
15198;SDS011;7700;48.654;9.070;2024-03-29T04:18:10;0.80;;;0.80;;
15198;SDS011;7700;48.654;9.070;2024-03-29T04:20:36;1.07;;;0.83;;
15198;SDS011;7700;48.654;9.070;2024-03-29T04:23:03;0.60;;;0.60;;
15198;SDS011;7700;48.654;9.070;2024-03-29T04:25:29;2.43;;;0.90;;
15198;SDS011;7700;48.654;9.070;2024-03-29T04:27:55;1.43;;;0.90;;
15198;SDS011;7700;48.654;9.070;2024-03-29T04:30:20;1.93;;;0.80;;
15198;SDS011;7700;48.654;9.070;2024-03-29T04:32:46;1.17;;;0.70;;
15198;SDS011;7700;48.654;9.070;2024-03-29T04:35:12;1.20;;;1.00;;
15198;SDS011;7700;48.654;9.070;2024-03-29T04:37:37;1.30;;;1.20;;
15198;SDS011;7700;48.654;9.070;2024-03-29T04:40:03;1.30;;;1.20;;
15198;SDS011;7700;48.654;9.070;2024-03-29T04:42:29;1.80;;;1.10;;
15198;SDS011;7700;48.654;9.070;2024-03-29T04:44:54;2.63;;;1.67;;
15198;SDS011;7700;48.654;9.070;2024-03-29T04:47:20;2.43;;;1.37;;
15198;SDS011;7700;48.654;9.070;2024-03-29T04:49:46;1.20;;;1.10;;
15198;SDS011;7700;48.654;9.070;2024-03-29T04:52:11;1.23;;;1.13;;
15198;SDS011;7700;48.654;9.070;2024-03-29T04:54:38;1.47;;;1.20;;
15198;SDS011;7700;48.654;9.070;2024-03-29T04:57:03;0.93;;;0.90;;
15198;SDS011;7700;48.654;9.070;2024-03-29T04:59:31;0.87;;;0.87;;
15198;SDS011;7700;48.654;9.070;2024-03-29T05:01:58;1.63;;;1.10;;
15198;SDS011;7700;48.654;9.070;2024-03-29T05:04:24;1.80;;;1.30;;
15198;SDS011;7700;48.654;9.070;2024-03-29T05:06:53;0.90;;;0.90;;
15198;SDS011;7700;48.654;9.070;2024-03-29T05:09:23;1.03;;;0.97;;
15198;SDS011;7700;48.654;9.070;2024-03-29T05:11:50;2.30;;;1.43;;
15198;SDS011;7700;48.654;9.070;2024-03-29T05:14:16;1.87;;;1.10;;
15198;SDS011;7700;48.654;9.070;2024-03-29T05:16:46;1.10;;;1.00;;
15198;SDS011;7700;48.654;9.070;2024-03-29T05:19:12;1.13;;;1.03;;
15198;SDS011;7700;48.654;9.070;2024-03-29T05:21:39;1.13;;;0.90;;
15198;SDS011;7700;48.654;9.070;2024-03-29T05:24:05;1.20;;;1.10;;
15198;SDS011;7700;48.654;9.070;2024-03-29T05:26:31;3.43;;;3.13;;
15198;SDS011;7700;48.654;9.070;2024-03-29T05:28:56;4.27;;;3.83;;
15198;SDS011;7700;48.654;9.070;2024-03-29T05:31:23;2.93;;;2.63;;
15198;SDS011;7700;48.654;9.070;2024-03-29T05:33:49;3.43;;;2.83;;
15198;SDS011;7700;48.654;9.070;2024-03-29T05:36:15;2.13;;;1.67;;
15198;SDS011;7700;48.654;9.070;2024-03-29T05:38:40;1.40;;;1.30;;
15198;SDS011;7700;48.654;9.070;2024-03-29T05:41:06;0.93;;;0.93;;
15198;SDS011;7700;48.654;9.070;2024-03-29T05:43:32;1.20;;;1.10;;
15198;SDS011;7700;48.654;9.070;2024-03-29T05:45:58;4.43;;;3.30;;
15198;SDS011;7700;48.654;9.070;2024-03-29T05:48:26;2.60;;;2.17;;
15198;SDS011;7700;48.654;9.070;2024-03-29T05:50:51;2.60;;;1.70;;
15198;SDS011;7700;48.654;9.070;2024-03-29T05:53:17;4.30;;;2.70;;
15198;SDS011;7700;48.654;9.070;2024-03-29T05:55:43;2.23;;;1.50;;
15198;SDS011;7700;48.654;9.070;2024-03-29T05:58:08;1.30;;;1.20;;
15198;SDS011;7700;48.654;9.070;2024-03-29T06:00:34;2.07;;;1.67;;
15198;SDS011;7700;48.654;9.070;2024-03-29T06:03:00;1.43;;;1.33;;
15198;SDS011;7700;48.654;9.070;2024-03-29T06:05:27;1.37;;;1.20;;
15198;SDS011;7700;48.654;9.070;2024-03-29T06:07:53;2.20;;;1.20;;
15198;SDS011;7700;48.654;9.070;2024-03-29T06:10:19;1.53;;;1.10;;
15198;SDS011;7700;48.654;9.070;2024-03-29T06:12:44;1.40;;;1.20;;
15198;SDS011;7700;48.654;9.070;2024-03-29T06:15:10;1.43;;;1.00;;
15198;SDS011;7700;48.654;9.070;2024-03-29T06:17:54;1.20;;;1.07;;
15198;SDS011;7700;48.654;9.070;2024-03-29T06:20:20;1.00;;;0.90;;
15198;SDS011;7700;48.654;9.070;2024-03-29T06:22:45;1.97;;;1.00;;
15198;SDS011;7700;48.654;9.070;2024-03-29T06:25:11;1.30;;;1.20;;
15198;SDS011;7700;48.654;9.070;2024-03-29T06:27:37;2.30;;;0.90;;
15198;SDS011;7700;48.654;9.070;2024-03-29T06:30:03;0.90;;;0.90;;
15198;SDS011;7700;48.654;9.070;2024-03-29T06:32:30;1.33;;;0.93;;
15198;SDS011;7700;48.654;9.070;2024-03-29T06:34:56;0.90;;;0.90;;
15198;SDS011;7700;48.654;9.070;2024-03-29T06:37:23;1.03;;;1.00;;
15198;SDS011;7700;48.654;9.070;2024-03-29T06:39:50;1.10;;;1.00;;
15198;SDS011;7700;48.654;9.070;2024-03-29T06:42:16;1.70;;;1.60;;
15198;SDS011;7700;48.654;9.070;2024-03-29T06:44:41;2.83;;;1.77;;
15198;SDS011;7700;48.654;9.070;2024-03-29T06:47:07;2.37;;;2.17;;
15198;SDS011;7700;48.654;9.070;2024-03-29T06:49:33;2.93;;;2.63;;
15198;SDS011;7700;48.654;9.070;2024-03-29T06:51:59;3.30;;;3.10;;
15198;SDS011;7700;48.654;9.070;2024-03-29T06:54:29;3.40;;;3.10;;
15198;SDS011;7700;48.654;9.070;2024-03-29T06:56:55;3.30;;;3.03;;
15198;SDS011;7700;48.654;9.070;2024-03-29T06:59:21;2.07;;;1.97;;
15198;SDS011;7700;48.654;9.070;2024-03-29T07:01:47;2.53;;;2.00;;
15198;SDS011;7700;48.654;9.070;2024-03-29T07:04:16;1.90;;;1.80;;
15198;SDS011;7700;48.654;9.070;2024-03-29T07:06:45;3.33;;;1.80;;
15198;SDS011;7700;48.654;9.070;2024-03-29T07:09:13;1.67;;;1.57;;
15198;SDS011;7700;48.654;9.070;2024-03-29T07:11:39;2.10;;;1.43;;
15198;SDS011;7700;48.654;9.070;2024-03-29T07:14:04;1.40;;;1.30;;
15198;SDS011;7700;48.654;9.070;2024-03-29T07:16:30;2.43;;;1.30;;
15198;SDS011;7700;48.654;9.070;2024-03-29T07:18:56;1.30;;;1.20;;
15198;SDS011;7700;48.654;9.070;2024-03-29T07:21:21;1.70;;;1.60;;
15198;SDS011;7700;48.654;9.070;2024-03-29T07:23:47;3.40;;;2.43;;
15198;SDS011;7700;48.654;9.070;2024-03-29T07:26:12;3.30;;;3.00;;
15198;SDS011;7700;48.654;9.070;2024-03-29T07:28:38;2.40;;;1.73;;
15198;SDS011;7700;48.654;9.070;2024-03-29T07:31:07;3.00;;;2.70;;
15198;SDS011;7700;48.654;9.070;2024-03-29T07:33:33;5.97;;;5.10;;
15198;SDS011;7700;48.654;9.070;2024-03-29T07:35:58;4.43;;;3.80;;
15198;SDS011;7700;48.654;9.070;2024-03-29T07:38:24;3.30;;;2.73;;
15198;SDS011;7700;48.654;9.070;2024-03-29T07:40:50;3.70;;;3.40;;
15198;SDS011;7700;48.654;9.070;2024-03-29T07:43:17;2.77;;;2.57;;
15198;SDS011;7700;48.654;9.070;2024-03-29T07:45:43;2.40;;;1.53;;
15198;SDS011;7700;48.654;9.070;2024-03-29T07:48:11;2.70;;;1.40;;
15198;SDS011;7700;48.654;9.070;2024-03-29T07:50:38;3.00;;;1.57;;
15198;SDS011;7700;48.654;9.070;2024-03-29T07:53:04;4.07;;;1.50;;
15198;SDS011;7700;48.654;9.070;2024-03-29T07:55:30;1.83;;;1.60;;
15198;SDS011;7700;48.654;9.070;2024-03-29T07:57:55;1.80;;;1.70;;
15198;SDS011;7700;48.654;9.070;2024-03-29T08:00:21;3.23;;;2.37;;
15198;SDS011;7700;48.654;9.070;2024-03-29T08:02:47;3.37;;;2.80;;
15198;SDS011;7700;48.654;9.070;2024-03-29T08:05:13;5.00;;;3.80;;
15198;SDS011;7700;48.654;9.070;2024-03-29T08:07:39;3.70;;;2.70;;
15198;SDS011;7700;48.654;9.070;2024-03-29T08:10:04;3.17;;;2.20;;
15198;SDS011;7700;48.654;9.070;2024-03-29T08:12:31;2.63;;;2.43;;
15198;SDS011;7700;48.654;9.070;2024-03-29T08:14:57;2.37;;;2.10;;
15198;SDS011;7700;48.654;9.070;2024-03-29T08:17:23;3.67;;;2.30;;
15198;SDS011;7700;48.654;9.070;2024-03-29T08:19:49;2.50;;;2.30;;
15198;SDS011;7700;48.654;9.070;2024-03-29T08:22:15;5.07;;;3.80;;
15198;SDS011;7700;48.654;9.070;2024-03-29T08:24:41;7.37;;;6.77;;
15198;SDS011;7700;48.654;9.070;2024-03-29T08:27:07;7.43;;;6.73;;
15198;SDS011;7700;48.654;9.070;2024-03-29T08:29:32;4.87;;;4.47;;
15198;SDS011;7700;48.654;9.070;2024-03-29T08:31:58;5.23;;;4.83;;
15198;SDS011;7700;48.654;9.070;2024-03-29T08:34:23;4.90;;;4.50;;
15198;SDS011;7700;48.654;9.070;2024-03-29T08:36:49;5.33;;;4.83;;
15198;SDS011;7700;48.654;9.070;2024-03-29T08:39:15;6.33;;;5.20;;
15198;SDS011;7700;48.654;9.070;2024-03-29T08:41:41;4.33;;;3.93;;
15198;SDS011;7700;48.654;9.070;2024-03-29T08:44:07;4.23;;;3.40;;
15198;SDS011;7700;48.654;9.070;2024-03-29T08:46:32;2.63;;;2.43;;
15198;SDS011;7700;48.654;9.070;2024-03-29T08:48:58;3.37;;;3.07;;
15198;SDS011;7700;48.654;9.070;2024-03-29T08:51:23;3.30;;;3.00;;
15198;SDS011;7700;48.654;9.070;2024-03-29T08:53:49;3.03;;;2.73;;
15198;SDS011;7700;48.654;9.070;2024-03-29T08:56:15;3.27;;;2.97;;
15198;SDS011;7700;48.654;9.070;2024-03-29T08:58:41;3.20;;;2.63;;
15198;SDS011;7700;48.654;9.070;2024-03-29T09:01:06;2.50;;;2.30;;
15198;SDS011;7700;48.654;9.070;2024-03-29T09:03:32;6.07;;;5.43;;
15198;SDS011;7700;48.654;9.070;2024-03-29T09:05:57;4.27;;;3.17;;
15198;SDS011;7700;48.654;9.070;2024-03-29T09:08:23;2.63;;;2.43;;
15198;SDS011;7700;48.654;9.070;2024-03-29T09:10:49;4.40;;;1.90;;
15198;SDS011;7700;48.654;9.070;2024-03-29T09:13:15;2.20;;;1.80;;
15198;SDS011;7700;48.654;9.070;2024-03-29T09:15:40;4.40;;;4.00;;
15198;SDS011;7700;48.654;9.070;2024-03-29T09:18:07;3.30;;;3.00;;
15198;SDS011;7700;48.654;9.070;2024-03-29T09:20:42;4.90;;;3.03;;
15198;SDS011;7700;48.654;9.070;2024-03-29T09:23:09;2.13;;;1.97;;
15198;SDS011;7700;48.654;9.070;2024-03-29T09:25:34;2.10;;;1.90;;
15198;SDS011;7700;48.654;9.070;2024-03-29T09:28:00;2.03;;;1.80;;
15198;SDS011;7700;48.654;9.070;2024-03-29T09:30:25;1.60;;;1.50;;
15198;SDS011;7700;48.654;9.070;2024-03-29T09:32:51;1.53;;;1.40;;
15198;SDS011;7700;48.654;9.070;2024-03-29T09:35:19;1.97;;;1.80;;
15198;SDS011;7700;48.654;9.070;2024-03-29T09:37:45;2.60;;;2.40;;
15198;SDS011;7700;48.654;9.070;2024-03-29T09:40:13;2.77;;;2.47;;
15198;SDS011;7700;48.654;9.070;2024-03-29T09:42:39;2.90;;;2.60;;
15198;SDS011;7700;48.654;9.070;2024-03-29T09:45:05;2.23;;;2.10;;
15198;SDS011;7700;48.654;9.070;2024-03-29T09:47:32;1.80;;;1.70;;
15198;SDS011;7700;48.654;9.070;2024-03-29T09:50:02;2.30;;;1.60;;
15198;SDS011;7700;48.654;9.070;2024-03-29T09:52:31;2.83;;;1.60;;
15198;SDS011;7700;48.654;9.070;2024-03-29T09:54:58;1.63;;;1.53;;
15198;SDS011;7700;48.654;9.070;2024-03-29T09:57:25;2.93;;;1.90;;
15198;SDS011;7700;48.654;9.070;2024-03-29T09:59:55;2.13;;;1.57;;
15198;SDS011;7700;48.654;9.070;2024-03-29T10:03:34;2.47;;;1.57;;
15198;SDS011;7700;48.654;9.070;2024-03-29T10:06:08;2.33;;;1.60;;
15198;SDS011;7700;48.654;9.070;2024-03-29T10:08:37;1.80;;;1.70;;
15198;SDS011;7700;48.654;9.070;2024-03-29T10:11:02;1.83;;;1.20;;
15198;SDS011;7700;48.654;9.070;2024-03-29T10:13:28;1.13;;;1.03;;
15198;SDS011;7700;48.654;9.070;2024-03-29T10:15:54;2.80;;;1.40;;
15198;SDS011;7700;48.654;9.070;2024-03-29T10:18:26;1.43;;;1.30;;
15198;SDS011;7700;48.654;9.070;2024-03-29T10:21:06;0.97;;;0.93;;
15198;SDS011;7700;48.654;9.070;2024-03-29T10:23:32;2.20;;;0.90;;
15198;SDS011;7700;48.654;9.070;2024-03-29T10:26:00;1.13;;;1.02;;
15198;SDS011;7700;48.654;9.070;2024-03-29T10:28:29;1.38;;;0.90;;
15198;SDS011;7700;48.654;9.070;2024-03-29T10:30:57;1.05;;;1.00;;
15198;SDS011;7700;48.654;9.070;2024-03-29T10:33:23;1.40;;;1.08;;
15198;SDS011;7700;48.654;9.070;2024-03-29T10:35:52;1.00;;;0.90;;
15198;SDS011;7700;48.654;9.070;2024-03-29T10:38:20;1.05;;;0.93;;
15198;SDS011;7700;48.654;9.070;2024-03-29T10:40:46;1.10;;;0.80;;
15198;SDS011;7700;48.654;9.070;2024-03-29T10:43:13;1.83;;;1.30;;
15198;SDS011;7700;48.654;9.070;2024-03-29T10:45:41;2.15;;;1.05;;
15198;SDS011;7700;48.654;9.070;2024-03-29T10:48:08;0.88;;;0.85;;
15198;SDS011;7700;48.654;9.070;2024-03-29T10:50:35;2.85;;;0.98;;
15198;SDS011;7700;48.654;9.070;2024-03-29T10:53:02;1.02;;;0.93;;
15198;SDS011;7700;48.654;9.070;2024-03-29T10:55:37;2.00;;;1.25;;
15198;SDS011;7700;48.654;9.070;2024-03-29T10:58:03;0.98;;;0.90;;
15198;SDS011;7700;48.654;9.070;2024-03-29T11:00:34;1.35;;;0.90;;
15198;SDS011;7700;48.654;9.070;2024-03-29T11:03:10;2.50;;;2.22;;
15198;SDS011;7700;48.654;9.070;2024-03-29T11:05:43;2.47;;;1.80;;
15198;SDS011;7700;48.654;9.070;2024-03-29T11:08:16;3.72;;;2.72;;
15198;SDS011;7700;48.654;9.070;2024-03-29T11:10:47;1.98;;;1.65;;
15198;SDS011;7700;48.654;9.070;2024-03-29T11:15:50;1.05;;;0.95;;
15198;SDS011;7700;48.654;9.070;2024-03-29T11:18:16;1.95;;;1.40;;
15198;SDS011;7700;48.654;9.070;2024-03-29T11:20:44;1.63;;;1.45;;
15198;SDS011;7700;48.654;9.070;2024-03-29T11:23:15;2.17;;;1.40;;
15198;SDS011;7700;48.654;9.070;2024-03-29T11:25:43;1.10;;;1.00;;
15198;SDS011;7700;48.654;9.070;2024-03-29T11:28:23;1.40;;;1.08;;
15198;SDS011;7700;48.654;9.070;2024-03-29T11:30:51;0.90;;;0.90;;
15198;SDS011;7700;48.654;9.070;2024-03-29T11:33:27;1.00;;;0.82;;
15198;SDS011;7700;48.654;9.070;2024-03-29T11:36:10;1.42;;;0.95;;
15198;SDS011;7700;48.654;9.070;2024-03-29T11:38:46;1.10;;;1.00;;
15198;SDS011;7700;48.654;9.070;2024-03-29T11:41:21;1.77;;;0.90;;
15198;SDS011;7700;48.654;9.070;2024-03-29T11:43:52;1.27;;;0.93;;
15198;SDS011;7700;48.654;9.070;2024-03-29T11:46:18;1.15;;;0.70;;
15198;SDS011;7700;48.654;9.070;2024-03-29T11:48:45;0.80;;;0.80;;
15198;SDS011;7700;48.654;9.070;2024-03-29T11:51:18;1.88;;;1.02;;
15198;SDS011;7700;48.654;9.070;2024-03-29T11:53:46;1.38;;;0.80;;
15198;SDS011;7700;48.654;9.070;2024-03-29T11:56:12;0.93;;;0.77;;
15198;SDS011;7700;48.654;9.070;2024-03-29T11:58:38;2.10;;;0.85;;
15198;SDS011;7700;48.654;9.070;2024-03-29T12:01:05;1.30;;;0.70;;
15198;SDS011;7700;48.654;9.070;2024-03-29T12:03:31;1.10;;;0.63;;
15198;SDS011;7700;48.654;9.070;2024-03-29T12:06:00;1.08;;;0.80;;
15198;SDS011;7700;48.654;9.070;2024-03-29T12:08:29;1.48;;;0.98;;
15198;SDS011;7700;48.654;9.070;2024-03-29T12:10:57;2.13;;;1.00;;
15198;SDS011;7700;48.654;9.070;2024-03-29T12:13:24;1.73;;;0.90;;
15198;SDS011;7700;48.654;9.070;2024-03-29T12:15:49;1.90;;;0.77;;
15198;SDS011;7700;48.654;9.070;2024-03-29T12:18:15;3.63;;;1.23;;
15198;SDS011;7700;48.654;9.070;2024-03-29T12:20:41;1.13;;;0.70;;
15198;SDS011;7700;48.654;9.070;2024-03-29T12:23:11;0.80;;;0.65;;
15198;SDS011;7700;48.654;9.070;2024-03-29T12:25:38;0.80;;;0.57;;
15198;SDS011;7700;48.654;9.070;2024-03-29T12:28:04;0.98;;;0.65;;
15198;SDS011;7700;48.654;9.070;2024-03-29T12:30:31;1.52;;;0.90;;
15198;SDS011;7700;48.654;9.070;2024-03-29T12:33:04;1.17;;;0.80;;
15198;SDS011;7700;48.654;9.070;2024-03-29T12:35:31;1.08;;;0.80;;
15198;SDS011;7700;48.654;9.070;2024-03-29T12:37:58;1.05;;;0.88;;
15198;SDS011;7700;48.654;9.070;2024-03-29T12:40:26;0.80;;;0.77;;
15198;SDS011;7700;48.654;9.070;2024-03-29T12:42:54;1.10;;;1.00;;
15198;SDS011;7700;48.654;9.070;2024-03-29T12:45:21;4.05;;;0.80;;
15198;SDS011;7700;48.654;9.070;2024-03-29T12:47:47;1.17;;;0.95;;
15198;SDS011;7700;48.654;9.070;2024-03-29T12:50:14;1.10;;;0.77;;
15198;SDS011;7700;48.654;9.070;2024-03-29T12:52:48;0.80;;;0.60;;
15198;SDS011;7700;48.654;9.070;2024-03-29T12:55:14;1.30;;;0.80;;
15198;SDS011;7700;48.654;9.070;2024-03-29T12:57:43;1.13;;;0.70;;
15198;SDS011;7700;48.654;9.070;2024-03-29T13:00:09;0.70;;;0.70;;
15198;SDS011;7700;48.654;9.070;2024-03-29T13:02:36;0.47;;;0.47;;
15198;SDS011;7700;48.654;9.070;2024-03-29T13:05:05;1.58;;;0.60;;
15198;SDS011;7700;48.654;9.070;2024-03-29T13:07:31;0.60;;;0.60;;
15198;SDS011;7700;48.654;9.070;2024-03-29T13:09:57;0.60;;;0.60;;
15198;SDS011;7700;48.654;9.070;2024-03-29T13:12:27;0.55;;;0.40;;
15198;SDS011;7700;48.654;9.070;2024-03-29T13:14:53;1.83;;;1.05;;
15198;SDS011;7700;48.654;9.070;2024-03-29T13:17:19;1.00;;;0.90;;
15198;SDS011;7700;48.654;9.070;2024-03-29T13:19:45;1.60;;;0.80;;
15198;SDS011;7700;48.654;9.070;2024-03-29T13:22:10;1.08;;;0.80;;
15198;SDS011;7700;48.654;9.070;2024-03-29T13:24:36;0.50;;;0.47;;
15198;SDS011;7700;48.654;9.070;2024-03-29T13:27:02;2.25;;;0.70;;
15198;SDS011;7700;48.654;9.070;2024-03-29T13:29:28;0.80;;;0.80;;
15198;SDS011;7700;48.654;9.070;2024-03-29T13:31:55;1.65;;;0.75;;
15198;SDS011;7700;48.654;9.070;2024-03-29T13:34:21;0.63;;;0.63;;
15198;SDS011;7700;48.654;9.070;2024-03-29T13:36:47;1.02;;;0.70;;
15198;SDS011;7700;48.654;9.070;2024-03-29T13:39:13;1.02;;;0.85;;
15198;SDS011;7700;48.654;9.070;2024-03-29T13:41:40;2.30;;;0.90;;
15198;SDS011;7700;48.654;9.070;2024-03-29T13:44:06;0.70;;;0.70;;
15198;SDS011;7700;48.654;9.070;2024-03-29T13:46:35;1.25;;;0.70;;
15198;SDS011;7700;48.654;9.070;2024-03-29T13:49:01;1.02;;;0.77;;
15198;SDS011;7700;48.654;9.070;2024-03-29T13:51:28;0.95;;;0.77;;
15198;SDS011;7700;48.654;9.070;2024-03-29T13:53:54;0.82;;;0.70;;
15198;SDS011;7700;48.654;9.070;2024-03-29T13:56:20;0.95;;;0.63;;
15198;SDS011;7700;48.654;9.070;2024-03-29T13:58:46;1.40;;;0.80;;
15198;SDS011;7700;48.654;9.070;2024-03-29T14:01:12;1.30;;;0.80;;
15198;SDS011;7700;48.654;9.070;2024-03-29T14:03:37;1.80;;;0.80;;
15198;SDS011;7700;48.654;9.070;2024-03-29T14:06:03;0.98;;;0.90;;
15198;SDS011;7700;48.654;9.070;2024-03-29T14:08:30;1.40;;;1.10;;
15198;SDS011;7700;48.654;9.070;2024-03-29T14:10:56;1.00;;;0.90;;
15198;SDS011;7700;48.654;9.070;2024-03-29T14:13:21;1.35;;;1.05;;
15198;SDS011;7700;48.654;9.070;2024-03-29T14:15:47;3.35;;;1.10;;
15198;SDS011;7700;48.654;9.070;2024-03-29T14:18:12;1.80;;;0.93;;
15198;SDS011;7700;48.654;9.070;2024-03-29T14:20:38;1.17;;;1.00;;
15198;SDS011;7700;48.654;9.070;2024-03-29T14:23:04;1.38;;;1.27;;
15198;SDS011;7700;48.654;9.070;2024-03-29T14:25:31;1.25;;;1.00;;
15198;SDS011;7700;48.654;9.070;2024-03-29T14:27:57;1.50;;;0.80;;
15198;SDS011;7700;48.654;9.070;2024-03-29T14:30:24;1.35;;;1.00;;
15198;SDS011;7700;48.654;9.070;2024-03-29T14:32:51;1.10;;;0.88;;
15198;SDS011;7700;48.654;9.070;2024-03-29T14:35:17;1.92;;;0.95;;
15198;SDS011;7700;48.654;9.070;2024-03-29T14:37:43;1.02;;;1.02;;
15198;SDS011;7700;48.654;9.070;2024-03-29T14:40:09;1.10;;;0.90;;
15198;SDS011;7700;48.654;9.070;2024-03-29T14:42:37;1.13;;;0.70;;
15198;SDS011;7700;48.654;9.070;2024-03-29T14:45:03;1.08;;;0.98;;
15198;SDS011;7700;48.654;9.070;2024-03-29T14:47:31;3.47;;;1.25;;
15198;SDS011;7700;48.654;9.070;2024-03-29T14:49:57;0.68;;;0.60;;
15198;SDS011;7700;48.654;9.070;2024-03-29T14:52:28;0.73;;;0.70;;
15198;SDS011;7700;48.654;9.070;2024-03-29T14:54:53;1.23;;;1.10;;
15198;SDS011;7700;48.654;9.070;2024-03-29T14:57:19;1.05;;;0.68;;
15198;SDS011;7700;48.654;9.070;2024-03-29T14:59:47;2.85;;;1.10;;
15198;SDS011;7700;48.654;9.070;2024-03-29T15:02:13;0.85;;;0.75;;